createdAt,value
2024-02-05T00:02:59.258Z,100211.53
2024-02-05T00:06:01.230Z,100208.59
2024-02-05T00:09:06.260Z,100203.47
2024-02-05T00:12:08.058Z,100206.94
2024-02-05T00:15:10.181Z,100204.53
2024-02-05T00:18:11.982Z,100204.31
2024-02-05T00:21:13.715Z,100213.41
2024-02-05T00:24:15.391Z,100211.00
2024-02-05T00:27:17.060Z,100204.31
2024-02-05T00:30:19.665Z,100201.06
2024-02-05T00:33:21.436Z,100208.59
2024-02-05T00:36:23.212Z,100202.94
2024-02-05T00:39:25.894Z,100190.34
2024-02-05T00:42:27.494Z,100210.44
2024-02-05T00:45:29.131Z,100191.41
2024-02-05T00:48:30.849Z,100197.84
2024-02-05T00:51:32.562Z,100191.63
2024-02-05T00:54:34.283Z,100191.34
2024-02-05T00:57:36.028Z,100181.97
2024-02-05T01:00:37.814Z,100173.13
2024-02-05T01:03:39.655Z,100182.00
2024-02-05T01:06:41.657Z,100189.78
2024-02-05T01:09:43.671Z,100185.25
2024-02-05T01:12:45.459Z,100183.34
2024-02-05T01:15:47.138Z,100184.97
2024-02-05T01:18:48.984Z,100184.69
2024-02-05T01:21:50.705Z,100184.97
2024-02-05T01:24:52.372Z,100191.94
2024-02-05T01:27:54.096Z,100189.78
2024-02-05T01:30:55.745Z,100191.38
2024-02-05T01:33:57.468Z,100175.59
2024-02-05T01:36:59.272Z,100194.06
2024-02-05T01:40:00.950Z,100180.69
2024-02-05T01:43:02.691Z,100200.25
2024-02-05T01:46:05.000Z,100198.94
2024-02-05T01:49:08.855Z,100203.22
2024-02-05T01:52:12.564Z,100215.56
2024-02-05T01:55:16.209Z,100212.88
2024-02-05T01:58:20.432Z,100217.19
2024-02-05T02:01:22.372Z,100196.78
2024-02-05T02:04:24.788Z,100200.56
2024-02-05T02:07:27.365Z,100212.31
2024-02-05T02:10:29.099Z,100207.78
2024-02-05T02:13:31.809Z,100212.88
2024-02-05T02:16:34.014Z,100202.44
2024-02-05T02:19:50.239Z,100209.13
2024-02-05T02:22:57.495Z,100214.50
2024-02-05T02:26:02.235Z,100212.34
2024-02-05T02:29:03.907Z,100208.06
2024-02-05T02:32:30.453Z,100216.91
2024-02-05T02:35:43.541Z,100204.84
2024-02-05T02:39:12.531Z,100213.97
2024-02-05T02:42:16.881Z,100209.66
2024-02-05T02:45:19.093Z,100206.44
2024-02-05T02:48:20.879Z,100207.00
2024-02-05T02:51:23.497Z,100204.31
2024-02-05T02:54:25.179Z,100203.50
2024-02-05T02:57:26.793Z,100189.00
2024-02-05T03:00:29.116Z,100207.50
2024-02-05T03:03:31.368Z,100194.34
2024-02-05T03:06:33.154Z,100201.63
2024-02-05T03:09:34.869Z,100195.44
2024-02-05T03:12:36.770Z,100203.75
2024-02-05T03:15:38.568Z,100203.22
2024-02-05T03:18:40.239Z,100213.13
2024-02-05T03:21:42.082Z,100204.84
2024-02-05T03:24:43.797Z,100200.00
2024-02-05T03:27:45.542Z,100212.13
2024-02-05T03:30:47.682Z,100215.84
2024-02-05T03:33:49.714Z,100212.91
2024-02-05T03:36:51.853Z,100218.00
2024-02-05T03:39:53.502Z,100215.03
2024-02-05T03:42:55.960Z,100217.72
2024-02-05T03:45:57.746Z,100209.41
2024-02-05T03:49:00.248Z,100219.59
2024-02-05T03:52:02.060Z,100208.59
2024-02-05T03:55:05.277Z,100228.16
2024-02-05T03:58:07.631Z,100228.94
2024-02-05T04:01:09.668Z,100221.97
2024-02-05T04:04:12.566Z,100240.47
2024-02-05T04:07:14.582Z,100227.84
2024-02-05T04:10:16.244Z,100238.06
2024-02-05T04:13:18.361Z,100222.75
2024-02-05T04:16:20.166Z,100213.38
2024-02-05T04:19:21.793Z,100225.66
2024-02-05T04:22:23.444Z,100218.69
2024-02-05T04:25:25.325Z,100231.03
2024-02-05T04:28:27.176Z,100219.78
2024-02-05T04:31:29.015Z,100216.28
2024-02-05T04:34:30.791Z,100225.13
2024-02-05T04:37:32.475Z,100213.88
2024-02-05T04:40:34.123Z,100230.75
2024-02-05T04:43:38.874Z,100227.78
2024-02-05T04:46:40.501Z,100228.03
2024-02-05T04:49:44.609Z,100225.34
2024-02-05T04:52:48.723Z,100220.53
2024-02-05T04:55:50.598Z,100227.25
2024-02-05T04:58:53.168Z,100228.88
2024-02-05T05:01:54.956Z,100212.75
2024-02-05T05:04:56.770Z,100209.25
2024-02-05T05:07:59.075Z,100220.78
2024-02-05T05:11:00.958Z,100228.84
2024-02-05T05:14:02.703Z,100229.91
2024-02-05T05:17:04.552Z,100224.03
2024-02-05T05:20:06.597Z,100225.41
2024-02-05T05:23:08.356Z,100225.94
2024-02-05T05:26:10.853Z,100211.41
2024-02-05T05:29:12.527Z,100213.84
2024-02-05T05:32:14.243Z,100217.03
2024-02-05T05:35:18.326Z,100207.97
2024-02-05T05:38:20.037Z,100206.88
2024-02-05T05:41:21.960Z,100218.66
2024-02-05T05:44:23.740Z,100211.94
2024-02-05T05:47:25.416Z,100220.25
2024-02-05T05:50:27.053Z,100210.56
2024-02-05T05:53:28.720Z,100193.66
2024-02-05T05:56:30.404Z,100197.13
2024-02-05T05:59:32.447Z,100211.09
2024-02-05T06:02:34.140Z,100208.91
2024-02-05T06:05:35.821Z,100204.69
2024-02-05T06:08:37.453Z,100217.03
2024-02-05T06:11:39.115Z,100219.16
2024-02-05T06:14:41.994Z,100228.03
2024-02-05T06:17:43.729Z,100210.06
2024-02-05T06:20:45.520Z,100205.00
2024-02-05T06:23:47.139Z,100210.09
2024-02-05T06:26:48.817Z,100198.91
2024-02-05T06:29:52.184Z,100208.28
2024-02-05T06:32:54.425Z,100206.91
2024-02-05T06:35:56.309Z,100202.09
2024-02-05T06:38:57.921Z,100193.25
2024-02-05T06:41:59.598Z,100198.63
2024-02-05T06:45:01.249Z,100189.78
2024-02-05T06:48:03.101Z,100196.53
2024-02-05T06:51:04.956Z,100198.63
2024-02-05T06:54:06.665Z,100195.97
2024-02-05T06:57:08.349Z,100199.94
2024-02-05T07:00:11.514Z,100194.03
2024-02-05T07:03:15.247Z,100212.84
2024-02-05T07:06:18.178Z,100206.91
2024-02-05T07:09:23.024Z,100204.78
2024-02-05T07:12:24.979Z,100210.41
2024-02-05T07:15:26.688Z,100212.00
2024-02-05T07:18:28.385Z,100206.09
2024-02-05T07:21:31.121Z,100209.88
2024-02-05T07:24:32.832Z,100226.53
2024-02-05T07:27:36.450Z,100219.28
2024-02-05T07:30:38.253Z,100211.78
2024-02-05T07:33:39.979Z,100213.09
2024-02-05T07:36:41.740Z,100216.34
2024-02-05T07:39:43.433Z,100216.88
2024-02-05T07:42:45.091Z,100213.91
2024-02-05T07:45:46.758Z,100202.34
2024-02-05T07:48:48.935Z,100229.69
2024-02-05T07:51:50.776Z,100240.69
2024-02-05T07:54:52.917Z,100234.50
2024-02-05T07:57:54.646Z,100238.00
2024-02-05T08:00:56.369Z,100240.66
2024-02-05T08:03:58.223Z,100238.50
2024-02-05T08:07:00.717Z,100231.81
2024-02-05T08:10:02.637Z,100222.06
2024-02-05T08:13:04.902Z,100226.94
2024-02-05T08:16:07.007Z,100231.22
2024-02-05T08:19:11.072Z,100230.41
2024-02-05T08:22:12.984Z,100233.31
2024-02-05T08:25:15.158Z,100233.59
2024-02-05T08:28:16.832Z,100213.22
2024-02-05T08:31:21.067Z,100227.66
2024-02-05T08:34:22.902Z,100233.53
2024-02-05T08:37:24.724Z,100225.97
2024-02-05T08:40:26.833Z,100244.56
2024-02-05T08:43:28.590Z,100240.22
2024-02-05T08:46:30.268Z,100238.31
2024-02-05T08:49:31.955Z,100245.88
2024-02-05T08:52:33.650Z,100249.31
2024-02-05T08:55:35.524Z,100250.91
2024-02-05T08:58:37.329Z,100241.47
2024-02-05T09:01:39.078Z,100250.09
2024-02-05T09:04:40.813Z,100250.34
2024-02-05T09:07:42.601Z,100238.25
2024-02-05T09:10:44.577Z,100236.63
2024-02-05T09:13:46.302Z,100243.56
2024-02-05T09:16:47.918Z,100233.88
2024-02-05T09:19:49.736Z,100242.78
2024-02-05T09:22:51.582Z,100243.81
2024-02-05T09:25:53.225Z,100235.22
2024-02-05T09:28:54.941Z,100245.06
2024-02-05T09:31:56.719Z,100246.69
2024-02-05T09:34:59.763Z,100233.00
2024-02-05T09:38:03.447Z,100243.41
2024-02-05T09:41:07.829Z,100238.25
2024-02-05T09:44:10.608Z,100234.22
2024-02-05T09:47:19.574Z,100234.22
2024-02-05T09:50:22.722Z,100236.06
2024-02-05T09:53:24.908Z,100239.25
2024-02-05T09:56:32.494Z,100242.47
2024-02-05T09:59:35.387Z,100244.91
2024-02-05T10:02:38.010Z,100227.50
2024-02-05T10:05:40.878Z,100235.75
2024-02-05T10:08:42.864Z,100234.22
2024-02-05T10:11:50.305Z,100231.03
2024-02-05T10:14:52.392Z,100223.22
2024-02-05T10:17:54.148Z,100228.47
2024-02-05T10:20:56.419Z,100215.03
2024-02-05T10:23:58.101Z,100206.94
2024-02-05T10:26:59.846Z,100210.72
2024-02-05T10:30:03.888Z,100208.38
2024-02-05T10:33:06.129Z,100202.19
2024-02-05T10:36:08.601Z,100208.84
2024-02-05T10:39:10.776Z,100199.16
2024-02-05T10:42:12.474Z,100193.03
2024-02-05T10:45:14.231Z,100194.41
2024-02-05T10:48:16.002Z,100188.13
2024-02-05T10:51:18.139Z,100185.56
2024-02-05T10:54:21.697Z,100184.47
2024-02-05T10:57:27.504Z,100176.38
2024-02-05T11:00:30.606Z,100165.81
2024-02-05T11:03:38.686Z,100175.41
2024-02-05T11:06:47.196Z,100167.56
2024-02-05T11:09:50.316Z,100150.72
2024-02-05T11:12:58.634Z,100147.06
2024-02-05T11:16:03.505Z,100134.69
2024-02-05T11:19:08.909Z,100135.88
2024-02-05T11:22:12.088Z,100139.13
2024-02-05T11:25:15.395Z,100125.28
2024-02-05T11:28:17.764Z,100117.47
2024-02-05T11:31:19.654Z,100118.53
2024-02-05T11:34:22.692Z,100111.22
2024-02-05T11:37:26.230Z,100102.06
2024-02-05T11:40:31.928Z,100104.88
2024-02-05T11:43:35.653Z,100103.34
2024-02-05T11:46:39.032Z,100092.25
2024-02-05T11:49:46.575Z,100074.13
2024-02-05T11:52:48.418Z,100080.25
2024-02-05T11:55:50.256Z,100075.34
2024-02-05T11:58:51.999Z,100054.66
2024-02-05T12:01:53.959Z,100070.34
2024-02-05T12:04:56.233Z,100054.75
2024-02-05T12:07:58.246Z,100038.84
2024-02-05T12:11:00.681Z,100039.84
2024-02-05T12:14:02.588Z,100037.13
2024-02-05T12:17:14.497Z,100031.41
2024-02-05T12:20:20.312Z,100023.28
2024-02-05T12:23:22.097Z,100018.16
2024-02-05T12:26:24.932Z,100015.84
2024-02-05T12:29:26.561Z,100003.00
2024-02-05T12:32:35.540Z,100006.38
2024-02-05T12:35:40.195Z,99994.16
2024-02-05T12:38:42.181Z,99988.19
2024-02-05T12:41:45.518Z,99971.34
2024-02-05T12:45:01.029Z,99963.38
2024-02-05T12:48:11.822Z,99974.28
2024-02-05T12:51:13.914Z,99961.53
2024-02-05T12:54:16.616Z,99958.34
2024-02-05T12:57:18.987Z,99958.34
2024-02-05T13:00:22.226Z,99972.97
2024-02-05T13:03:23.941Z,99960.91
2024-02-05T13:06:28.903Z,99945.00
2024-02-05T13:09:35.042Z,99948.00
2024-02-05T13:12:36.803Z,99948.81
2024-02-05T13:15:39.159Z,99946.69
2024-02-05T13:18:40.878Z,99939.47
2024-02-05T13:21:42.703Z,99933.56
2024-02-05T13:24:44.384Z,99932.91
2024-02-05T13:27:46.054Z,99929.16
2024-02-05T13:30:47.867Z,99940.72
2024-02-05T13:33:50.054Z,99928.66
2024-02-05T13:36:51.761Z,99925.91
2024-02-05T13:39:53.493Z,99914.66
2024-02-05T13:42:56.041Z,99916.50
2024-02-05T13:45:59.487Z,99892.09
2024-02-05T13:49:01.481Z,99905.59
2024-02-05T13:52:03.164Z,99903.25
2024-02-05T13:55:05.386Z,99892.13
2024-02-05T13:58:07.174Z,99870.22
2024-02-05T14:01:08.996Z,99886.84
2024-02-05T14:04:11.579Z,99880.91
2024-02-05T14:07:13.311Z,99870.81
2024-02-05T14:10:15.086Z,99864.84
2024-02-05T14:13:17.276Z,99860.19
2024-02-05T14:16:19.021Z,99858.44
2024-02-05T14:19:20.695Z,99857.16
2024-02-05T14:22:22.490Z,99852.69
2024-02-05T14:25:24.225Z,99844.53
2024-02-05T14:28:25.985Z,99849.94
2024-02-05T14:31:27.875Z,99836.84
2024-02-05T14:34:34.142Z,99843.94
2024-02-05T14:37:36.064Z,99826.00
2024-02-05T14:40:37.937Z,99838.63
2024-02-05T14:43:39.650Z,99826.78
2024-02-05T14:46:41.416Z,99831.09
2024-02-05T14:49:43.343Z,99822.03
2024-02-05T14:52:45.189Z,99824.97
2024-02-05T14:55:46.894Z,99824.34
2024-02-05T14:58:48.681Z,99827.53
2024-02-05T15:01:50.439Z,99836.38
2024-02-05T15:04:52.179Z,99825.50
2024-02-05T15:07:54.047Z,99829.34
2024-02-05T15:10:55.804Z,99827.22
2024-02-05T15:13:57.461Z,99826.38
2024-02-05T15:16:59.119Z,99827.41
2024-02-05T15:20:00.797Z,99826.13
2024-02-05T15:23:02.493Z,99830.59
2024-02-05T15:26:04.552Z,99823.94
2024-02-05T15:29:06.196Z,99816.69
2024-02-05T15:32:07.971Z,99815.41
2024-02-05T15:35:11.156Z,99810.00
2024-02-05T15:38:16.017Z,99805.59
2024-02-05T15:41:18.050Z,99817.53
2024-02-05T15:44:20.255Z,99808.97
2024-02-05T15:47:22.054Z,99819.41
2024-02-05T15:50:23.936Z,99813.25
2024-02-05T15:53:25.657Z,99806.50
2024-02-05T15:56:33.919Z,99803.69
2024-02-05T15:59:41.553Z,99815.75
2024-02-05T16:02:43.358Z,99811.59
2024-02-05T16:05:45.083Z,99804.38
2024-02-05T16:08:46.742Z,99798.41
2024-02-05T16:11:48.826Z,99789.91
2024-02-05T16:14:50.486Z,99802.09
2024-02-05T16:17:52.144Z,99800.50
2024-02-05T16:20:53.867Z,99803.53
2024-02-05T16:23:55.601Z,99791.94
2024-02-05T16:26:57.684Z,99798.69
2024-02-05T16:29:59.785Z,99797.22
2024-02-05T16:33:04.493Z,99795.03
2024-02-05T16:36:06.687Z,99782.47
2024-02-05T16:39:08.455Z,99797.19
2024-02-05T16:42:10.277Z,99785.91
2024-02-05T16:45:11.906Z,99793.88
2024-02-05T16:48:13.655Z,99784.84
2024-02-05T16:51:15.292Z,99780.41
2024-02-05T16:54:17.026Z,99783.16
2024-02-05T16:57:19.505Z,99785.38
2024-02-05T17:00:22.676Z,99767.97
2024-02-05T17:03:24.713Z,99789.41
2024-02-05T17:06:26.375Z,99779.34
2024-02-05T17:09:28.044Z,99778.91
2024-02-05T17:12:30.128Z,99773.06
2024-02-05T17:15:31.918Z,99781.91
2024-02-05T17:18:33.672Z,99772.56
2024-02-05T17:21:40.168Z,99766.63
2024-02-05T17:24:44.583Z,99765.50
2024-02-05T17:27:46.689Z,99749.56
2024-02-05T17:30:48.407Z,99758.75
2024-02-05T17:33:50.250Z,99758.13
2024-02-05T17:36:53.233Z,99751.91
2024-02-05T17:39:55.252Z,99749.09
2024-02-05T17:42:56.898Z,99745.84
2024-02-05T17:45:58.807Z,99745.41
2024-02-05T17:49:00.469Z,99733.50
2024-02-05T17:52:03.150Z,99723.34
2024-02-05T17:55:05.099Z,99748.13
2024-02-05T17:58:06.812Z,99754.34
2024-02-05T18:01:09.488Z,99748.72
2024-02-05T18:04:11.397Z,99749.19
2024-02-05T18:07:13.195Z,99737.00
2024-02-05T18:10:15.185Z,99737.81
2024-02-05T18:13:19.041Z,99722.44
2024-02-05T18:16:21.829Z,99730.31
2024-02-05T18:19:23.647Z,99727.00
2024-02-05T18:22:25.501Z,99731.31
2024-02-05T18:25:27.243Z,99741.03
2024-02-05T18:28:35.592Z,99730.94
2024-02-05T18:31:40.025Z,99750.41
2024-02-05T18:34:45.855Z,99741.81
2024-02-05T18:37:48.819Z,99736.06
2024-02-05T18:40:52.068Z,99725.78
2024-02-05T18:43:53.880Z,99726.59
2024-02-05T18:46:56.273Z,99709.47
2024-02-05T18:49:58.386Z,99708.66
2024-02-05T18:53:00.112Z,99711.88
2024-02-05T18:56:04.476Z,99699.19
2024-02-05T18:59:06.072Z,99716.25
2024-02-05T19:02:08.738Z,99721.38
2024-02-05T19:05:11.782Z,99722.16
2024-02-05T19:08:13.630Z,99730.75
2024-02-05T19:11:15.843Z,99730.50
2024-02-05T19:14:17.456Z,99710.03
2024-02-05T19:17:19.130Z,99729.63
2024-02-05T19:20:21.084Z,99724.59
2024-02-05T19:23:22.928Z,99716.38
2024-02-05T19:26:24.750Z,99712.94
2024-02-05T19:29:29.713Z,99718.84
2024-02-05T19:32:31.402Z,99711.94
2024-02-05T19:35:33.216Z,99710.38
2024-02-05T19:38:35.046Z,99707.75
2024-02-05T19:41:36.707Z,99708.81
2024-02-05T19:44:38.372Z,99714.16
2024-02-05T19:47:40.262Z,99692.78
2024-02-05T19:50:41.967Z,99700.47
2024-02-05T19:53:43.619Z,99700.69
2024-02-05T19:56:46.705Z,99690.47
2024-02-05T19:59:48.402Z,99694.72
2024-02-05T20:02:50.320Z,99697.34
2024-02-05T20:05:52.019Z,99681.28
2024-02-05T20:08:53.669Z,99681.28
2024-02-05T20:11:55.352Z,99680.38
2024-02-05T20:14:56.999Z,99678.78
2024-02-05T20:17:58.666Z,99679.41
2024-02-05T20:21:00.527Z,99666.06
2024-02-05T20:24:04.071Z,99661.88
2024-02-05T20:27:05.823Z,99676.88
2024-02-05T20:30:07.876Z,99674.75
2024-02-05T20:33:09.772Z,99680.13
2024-02-05T20:36:11.541Z,99681.22
2024-02-05T20:39:15.973Z,99689.25
2024-02-05T20:42:18.910Z,99687.41
2024-02-05T20:45:20.526Z,99694.63
2024-02-05T20:48:22.350Z,99678.38
2024-02-05T20:51:24.064Z,99692.00
2024-02-05T20:54:25.714Z,99688.81
2024-02-05T20:57:27.350Z,99693.63
2024-02-05T21:00:29.046Z,99703.78
2024-02-05T21:03:35.210Z,99705.94
2024-02-05T21:06:38.481Z,99700.59
2024-02-05T21:09:40.143Z,99705.94
2024-02-05T21:12:42.231Z,99700.31
2024-02-05T21:15:43.960Z,99700.81
2024-02-05T21:18:45.645Z,99697.56
2024-02-05T21:21:47.473Z,99698.03
2024-02-05T21:24:51.084Z,99694.84
2024-02-05T21:27:54.185Z,99698.84
2024-02-05T21:30:55.893Z,99699.28
2024-02-05T21:33:57.662Z,99696.84
2024-02-05T21:36:59.556Z,99690.16
2024-02-05T21:40:01.628Z,99682.19
2024-02-05T21:43:04.331Z,99691.75
2024-02-05T21:46:06.053Z,99705.69
2024-02-05T21:49:08.132Z,99699.25
2024-02-05T21:52:10.675Z,99685.91
2024-02-05T21:55:12.557Z,99700.34
2024-02-05T21:58:14.279Z,99695.03
2024-02-05T22:01:16.041Z,99696.19
2024-02-05T22:04:18.048Z,99692.78
2024-02-05T22:07:23.037Z,99704.31
2024-02-05T22:10:25.118Z,99705.38
2024-02-05T22:13:26.837Z,99701.63
2024-02-05T22:16:28.525Z,99713.94
2024-02-05T22:19:30.424Z,99697.66
2024-02-05T22:22:32.300Z,99709.16
2024-02-05T22:25:34.103Z,99695.53
2024-02-05T22:28:36.029Z,99699.81
2024-02-05T22:31:37.820Z,99698.22
2024-02-05T22:34:40.349Z,99708.38
2024-02-05T22:37:42.201Z,99706.75
2024-02-05T22:40:43.988Z,99712.63
2024-02-05T22:43:45.728Z,99705.16
2024-02-05T22:46:47.483Z,99704.06
2024-02-05T22:49:49.561Z,99711.25
2024-02-05T22:52:51.368Z,99727.56
2024-02-05T22:55:53.084Z,99704.56
2024-02-05T22:58:54.829Z,99717.91
2024-02-05T23:01:56.570Z,99718.44
2024-02-05T23:04:58.496Z,99705.38
2024-02-05T23:08:00.860Z,99705.09
2024-02-05T23:11:02.763Z,99697.91
2024-02-05T23:14:06.436Z,99705.38
2024-02-05T23:17:08.205Z,99697.63
2024-02-05T23:20:11.040Z,99699.78
2024-02-05T23:23:13.088Z,99700.59
2024-02-05T23:26:14.728Z,99704.31
2024-02-05T23:29:16.440Z,99712.59
2024-02-05T23:32:18.135Z,99707.28
2024-02-05T23:35:19.852Z,99708.06
2024-02-05T23:38:21.723Z,99703.00
2024-02-05T23:41:23.422Z,99695.25
2024-02-05T23:44:25.831Z,99701.66
2024-02-05T23:47:27.533Z,99707.78
2024-02-05T23:50:29.213Z,99703.78
2024-02-05T23:53:30.888Z,99704.28
2024-02-05T23:56:32.798Z,99696.81
2024-02-05T23:59:34.442Z,99700.03
